sensor_id;sensor_type;location;lat;lon;timestamp;temperature;humidity
9987;DHT22;5033;46.310;11.214;2023-05-08T00:02:09;16.00;99.90
9987;DHT22;5033;46.310;11.214;2023-05-08T00:04:36;16.00;99.90
9987;DHT22;5033;46.310;11.214;2023-05-08T00:07:05;16.00;99.90
9987;DHT22;5033;46.310;11.214;2023-05-08T00:09:32;15.90;99.90
9987;DHT22;5033;46.310;11.214;2023-05-08T00:11:59;15.80;99.90
9987;DHT22;5033;46.310;11.214;2023-05-08T00:14:25;15.80;99.90
9987;DHT22;5033;46.310;11.214;2023-05-08T00:16:52;15.70;99.90
9987;DHT22;5033;46.310;11.214;2023-05-08T00:19:19;15.60;99.90
9987;DHT22;5033;46.310;11.214;2023-05-08T00:21:46;15.60;99.90
9987;DHT22;5033;46.310;11.214;2023-05-08T00:24:14;15.60;99.90
9987;DHT22;5033;46.310;11.214;2023-05-08T00:26:41;15.60;99.90
9987;DHT22;5033;46.310;11.214;2023-05-08T00:29:08;15.50;99.90
9987;DHT22;5033;46.310;11.214;2023-05-08T00:31:35;15.60;99.90
9987;DHT22;5033;46.310;11.214;2023-05-08T00:34:02;15.60;99.90
9987;DHT22;5033;46.310;11.214;2023-05-08T00:36:29;15.60;99.90
9987;DHT22;5033;46.310;11.214;2023-05-08T00:38:56;15.60;99.90
9987;DHT22;5033;46.310;11.214;2023-05-08T00:41:25;15.50;99.90
9987;DHT22;5033;46.310;11.214;2023-05-08T00:43:51;15.40;99.90
9987;DHT22;5033;46.310;11.214;2023-05-08T00:46:18;15.30;99.90
9987;DHT22;5033;46.310;11.214;2023-05-08T00:48:46;15.20;99.90
9987;DHT22;5033;46.310;11.214;2023-05-08T00:51:14;15.20;99.90
9987;DHT22;5033;46.310;11.214;2023-05-08T00:53:42;15.20;99.90
9987;DHT22;5033;46.310;11.214;2023-05-08T00:56:12;15.30;99.90
9987;DHT22;5033;46.310;11.214;2023-05-08T00:58:41;15.30;99.90
9987;DHT22;5033;46.310;11.214;2023-05-08T01:01:10;15.30;99.90
9987;DHT22;5033;46.310;11.214;2023-05-08T01:03:37;15.20;99.90
9987;DHT22;5033;46.310;11.214;2023-05-08T01:06:05;15.20;99.90
9987;DHT22;5033;46.310;11.214;2023-05-08T01:08:32;15.20;99.90
9987;DHT22;5033;46.310;11.214;2023-05-08T01:11:08;15.20;99.90
9987;DHT22;5033;46.310;11.214;2023-05-08T01:13:49;15.20;99.90
9987;DHT22;5033;46.310;11.214;2023-05-08T01:16:22;15.10;99.90
9987;DHT22;5033;46.310;11.214;2023-05-08T01:18:56;15.10;99.90
9987;DHT22;5033;46.310;11.214;2023-05-08T01:21:29;15.10;99.90
9987;DHT22;5033;46.310;11.214;2023-05-08T01:24:29;15.00;99.90
9987;DHT22;5033;46.310;11.214;2023-05-08T01:27:35;15.10;99.90
9987;DHT22;5033;46.310;11.214;2023-05-08T01:30:36;15.00;99.90
9987;DHT22;5033;46.310;11.214;2023-05-08T01:33:12;15.00;99.90
9987;DHT22;5033;46.310;11.214;2023-05-08T01:35:44;14.90;99.90
9987;DHT22;5033;46.310;11.214;2023-05-08T01:38:18;15.00;99.90
9987;DHT22;5033;46.310;11.214;2023-05-08T01:41:01;15.00;99.90
9987;DHT22;5033;46.310;11.214;2023-05-08T01:43:32;15.00;99.90
9987;DHT22;5033;46.310;11.214;2023-05-08T01:46:08;15.10;99.90
9987;DHT22;5033;46.310;11.214;2023-05-08T01:48:42;15.10;99.90
9987;DHT22;5033;46.310;11.214;2023-05-08T01:51:21;15.10;99.90
9987;DHT22;5033;46.310;11.214;2023-05-08T01:53:52;15.20;99.90
9987;DHT22;5033;46.310;11.214;2023-05-08T01:56:23;15.20;99.90
9987;DHT22;5033;46.310;11.214;2023-05-08T01:58:53;15.20;99.90
9987;DHT22;5033;46.310;11.214;2023-05-08T02:01:22;15.20;99.90
9987;DHT22;5033;46.310;11.214;2023-05-08T02:03:52;15.20;99.90
9987;DHT22;5033;46.310;11.214;2023-05-08T02:06:21;15.20;99.90
9987;DHT22;5033;46.310;11.214;2023-05-08T02:08:48;15.20;99.90
9987;DHT22;5033;46.310;11.214;2023-05-08T02:11:17;15.20;99.90
9987;DHT22;5033;46.310;11.214;2023-05-08T02:13:47;15.30;99.90
9987;DHT22;5033;46.310;11.214;2023-05-08T02:16:14;15.30;99.90
9987;DHT22;5033;46.310;11.214;2023-05-08T02:18:46;15.40;99.90
9987;DHT22;5033;46.310;11.214;2023-05-08T02:21:16;15.40;99.90
9987;DHT22;5033;46.310;11.214;2023-05-08T02:23:44;15.40;99.90
9987;DHT22;5033;46.310;11.214;2023-05-08T02:26:13;15.30;99.90
9987;DHT22;5033;46.310;11.214;2023-05-08T02:28:41;15.30;99.90
9987;DHT22;5033;46.310;11.214;2023-05-08T02:31:08;15.30;99.90
9987;DHT22;5033;46.310;11.214;2023-05-08T02:33:37;15.30;99.90
9987;DHT22;5033;46.310;11.214;2023-05-08T02:36:06;15.30;99.90
9987;DHT22;5033;46.310;11.214;2023-05-08T02:38:36;15.30;99.90
9987;DHT22;5033;46.310;11.214;2023-05-08T02:41:05;15.30;99.90
9987;DHT22;5033;46.310;11.214;2023-05-08T02:43:32;15.30;99.90
9987;DHT22;5033;46.310;11.214;2023-05-08T02:46:08;15.30;99.90
9987;DHT22;5033;46.310;11.214;2023-05-08T02:48:38;15.30;99.90
9987;DHT22;5033;46.310;11.214;2023-05-08T02:51:17;15.30;99.90
9987;DHT22;5033;46.310;11.214;2023-05-08T02:53:50;15.30;99.90
9987;DHT22;5033;46.310;11.214;2023-05-08T02:56:29;15.30;99.90
9987;DHT22;5033;46.310;11.214;2023-05-08T02:59:00;15.30;99.90
9987;DHT22;5033;46.310;11.214;2023-05-08T03:01:37;15.30;99.90
9987;DHT22;5033;46.310;11.214;2023-05-08T03:04:08;15.30;99.90
9987;DHT22;5033;46.310;11.214;2023-05-08T03:06:39;15.30;99.90
9987;DHT22;5033;46.310;11.214;2023-05-08T03:09:14;15.30;99.90
9987;DHT22;5033;46.310;11.214;2023-05-08T03:11:43;15.30;99.90
9987;DHT22;5033;46.310;11.214;2023-05-08T03:14:17;15.30;99.90
9987;DHT22;5033;46.310;11.214;2023-05-08T03:16:46;15.20;99.90
9987;DHT22;5033;46.310;11.214;2023-05-08T03:19:18;15.20;99.90
9987;DHT22;5033;46.310;11.214;2023-05-08T03:21:48;15.20;99.90
9987;DHT22;5033;46.310;11.214;2023-05-08T03:24:18;15.20;99.90
9987;DHT22;5033;46.310;11.214;2023-05-08T03:26:46;15.20;99.90
9987;DHT22;5033;46.310;11.214;2023-05-08T03:29:13;15.20;99.90
9987;DHT22;5033;46.310;11.214;2023-05-08T03:31:43;15.20;99.90
9987;DHT22;5033;46.310;11.214;2023-05-08T03:34:11;15.20;99.90
9987;DHT22;5033;46.310;11.214;2023-05-08T03:36:39;15.10;99.90
9987;DHT22;5033;46.310;11.214;2023-05-08T03:39:06;15.00;99.90
9987;DHT22;5033;46.310;11.214;2023-05-08T03:41:35;15.00;99.90
9987;DHT22;5033;46.310;11.214;2023-05-08T03:44:03;15.00;99.90
9987;DHT22;5033;46.310;11.214;2023-05-08T03:46:30;15.00;99.90
9987;DHT22;5033;46.310;11.214;2023-05-08T03:48:59;15.00;99.90
9987;DHT22;5033;46.310;11.214;2023-05-08T03:51:28;15.00;99.90
9987;DHT22;5033;46.310;11.214;2023-05-08T03:53:55;15.00;99.90
9987;DHT22;5033;46.310;11.214;2023-05-08T03:56:22;15.00;99.90
9987;DHT22;5033;46.310;11.214;2023-05-08T03:58:55;15.00;99.90
9987;DHT22;5033;46.310;11.214;2023-05-08T04:01:31;15.00;99.90
9987;DHT22;5033;46.310;11.214;2023-05-08T04:04:08;15.00;99.90
9987;DHT22;5033;46.310;11.214;2023-05-08T04:06:39;15.10;99.90
9987;DHT22;5033;46.310;11.214;2023-05-08T04:09:12;15.10;99.90
9987;DHT22;5033;46.310;11.214;2023-05-08T04:11:43;15.10;99.90
9987;DHT22;5033;46.310;11.214;2023-05-08T04:14:18;15.10;99.90
9987;DHT22;5033;46.310;11.214;2023-05-08T04:16:48;15.10;99.90
9987;DHT22;5033;46.310;11.214;2023-05-08T04:19:23;15.10;99.90
9987;DHT22;5033;46.310;11.214;2023-05-08T04:21:53;15.10;99.90
9987;DHT22;5033;46.310;11.214;2023-05-08T04:24:24;15.00;99.90
9987;DHT22;5033;46.310;11.214;2023-05-08T04:26:53;15.00;99.90
9987;DHT22;5033;46.310;11.214;2023-05-08T04:29:22;15.00;99.90
9987;DHT22;5033;46.310;11.214;2023-05-08T04:31:49;15.00;99.90
9987;DHT22;5033;46.310;11.214;2023-05-08T04:34:17;14.90;99.90
9987;DHT22;5033;46.310;11.214;2023-05-08T04:36:44;14.90;99.90
9987;DHT22;5033;46.310;11.214;2023-05-08T04:39:13;14.90;99.90
9987;DHT22;5033;46.310;11.214;2023-05-08T04:41:40;14.90;99.90
9987;DHT22;5033;46.310;11.214;2023-05-08T04:44:06;15.00;99.90
9987;DHT22;5033;46.310;11.214;2023-05-08T04:46:35;15.00;99.90
9987;DHT22;5033;46.310;11.214;2023-05-08T04:49:02;14.90;99.90
9987;DHT22;5033;46.310;11.214;2023-05-08T04:51:29;15.00;99.90
9987;DHT22;5033;46.310;11.214;2023-05-08T04:53:56;15.00;99.90
9987;DHT22;5033;46.310;11.214;2023-05-08T04:56:23;14.90;99.90
9987;DHT22;5033;46.310;11.214;2023-05-08T04:58:51;14.90;99.90
9987;DHT22;5033;46.310;11.214;2023-05-08T05:01:18;14.80;99.90
9987;DHT22;5033;46.310;11.214;2023-05-08T05:03:46;14.80;99.90
9987;DHT22;5033;46.310;11.214;2023-05-08T05:06:13;14.80;99.90
9987;DHT22;5033;46.310;11.214;2023-05-08T05:08:40;14.80;99.90
9987;DHT22;5033;46.310;11.214;2023-05-08T05:11:07;14.80;99.90
9987;DHT22;5033;46.310;11.214;2023-05-08T05:13:34;14.90;99.90
9987;DHT22;5033;46.310;11.214;2023-05-08T05:16:01;14.90;99.90
9987;DHT22;5033;46.310;11.214;2023-05-08T05:18:28;14.90;99.90
9987;DHT22;5033;46.310;11.214;2023-05-08T05:20:58;14.80;99.90
9987;DHT22;5033;46.310;11.214;2023-05-08T05:23:25;14.70;99.90
9987;DHT22;5033;46.310;11.214;2023-05-08T05:25:52;14.70;99.90
9987;DHT22;5033;46.310;11.214;2023-05-08T05:28:18;14.70;99.90
9987;DHT22;5033;46.310;11.214;2023-05-08T05:30:46;14.80;99.90
9987;DHT22;5033;46.310;11.214;2023-05-08T05:33:13;14.80;99.90
9987;DHT22;5033;46.310;11.214;2023-05-08T05:35:41;14.90;99.90
9987;DHT22;5033;46.310;11.214;2023-05-08T05:38:09;14.90;99.90
9987;DHT22;5033;46.310;11.214;2023-05-08T05:40:36;15.00;99.90
9987;DHT22;5033;46.310;11.214;2023-05-08T05:43:03;15.00;99.90
9987;DHT22;5033;46.310;11.214;2023-05-08T05:45:30;15.00;99.90
9987;DHT22;5033;46.310;11.214;2023-05-08T05:47:57;15.00;99.90
9987;DHT22;5033;46.310;11.214;2023-05-08T05:50:24;15.00;99.90
9987;DHT22;5033;46.310;11.214;2023-05-08T05:52:51;15.00;99.90
9987;DHT22;5033;46.310;11.214;2023-05-08T05:55:20;15.00;99.90
9987;DHT22;5033;46.310;11.214;2023-05-08T05:57:47;15.00;99.90
9987;DHT22;5033;46.310;11.214;2023-05-08T06:00:15;15.00;99.90
9987;DHT22;5033;46.310;11.214;2023-05-08T06:02:42;15.00;99.90
9987;DHT22;5033;46.310;11.214;2023-05-08T06:05:09;15.00;99.90
9987;DHT22;5033;46.310;11.214;2023-05-08T06:07:36;15.10;99.90
9987;DHT22;5033;46.310;11.214;2023-05-08T06:10:05;15.10;99.90
9987;DHT22;5033;46.310;11.214;2023-05-08T06:12:34;15.10;99.90
9987;DHT22;5033;46.310;11.214;2023-05-08T06:15:01;15.20;99.90
9987;DHT22;5033;46.310;11.214;2023-05-08T06:17:27;15.20;99.90
9987;DHT22;5033;46.310;11.214;2023-05-08T06:19:54;15.20;99.90
9987;DHT22;5033;46.310;11.214;2023-05-08T06:22:21;15.30;99.90
9987;DHT22;5033;46.310;11.214;2023-05-08T06:24:49;15.30;99.90
9987;DHT22;5033;46.310;11.214;2023-05-08T06:27:17;15.30;99.90
9987;DHT22;5033;46.310;11.214;2023-05-08T06:29:46;15.40;99.90
9987;DHT22;5033;46.310;11.214;2023-05-08T06:32:16;15.40;99.90
9987;DHT22;5033;46.310;11.214;2023-05-08T06:34:43;15.50;99.90
9987;DHT22;5033;46.310;11.214;2023-05-08T06:37:10;15.50;99.90
9987;DHT22;5033;46.310;11.214;2023-05-08T06:39:37;15.40;99.90
9987;DHT22;5033;46.310;11.214;2023-05-08T06:42:04;15.40;99.90
9987;DHT22;5033;46.310;11.214;2023-05-08T06:44:31;15.50;99.90
9987;DHT22;5033;46.310;11.214;2023-05-08T06:46:59;15.50;99.90
9987;DHT22;5033;46.310;11.214;2023-05-08T06:49:26;15.50;99.90
9987;DHT22;5033;46.310;11.214;2023-05-08T06:51:53;15.60;99.90
9987;DHT22;5033;46.310;11.214;2023-05-08T06:54:21;15.60;99.90
9987;DHT22;5033;46.310;11.214;2023-05-08T06:56:48;15.70;99.90
9987;DHT22;5033;46.310;11.214;2023-05-08T06:59:15;15.80;99.90
9987;DHT22;5033;46.310;11.214;2023-05-08T07:01:42;15.90;99.90
9987;DHT22;5033;46.310;11.214;2023-05-08T07:04:10;16.00;99.90
9987;DHT22;5033;46.310;11.214;2023-05-08T07:06:37;16.00;99.90
9987;DHT22;5033;46.310;11.214;2023-05-08T07:09:04;16.10;99.90
9987;DHT22;5033;46.310;11.214;2023-05-08T07:11:31;16.20;99.90
9987;DHT22;5033;46.310;11.214;2023-05-08T07:13:58;16.20;99.90
9987;DHT22;5033;46.310;11.214;2023-05-08T07:16:25;16.20;99.90
9987;DHT22;5033;46.310;11.214;2023-05-08T07:18:52;16.20;99.90
9987;DHT22;5033;46.310;11.214;2023-05-08T07:21:20;16.30;99.90
9987;DHT22;5033;46.310;11.214;2023-05-08T07:23:47;16.30;99.90
9987;DHT22;5033;46.310;11.214;2023-05-08T07:26:16;16.30;99.90
9987;DHT22;5033;46.310;11.214;2023-05-08T07:28:43;16.50;99.90
9987;DHT22;5033;46.310;11.214;2023-05-08T07:31:10;16.50;99.90
9987;DHT22;5033;46.310;11.214;2023-05-08T07:33:37;16.50;99.90
9987;DHT22;5033;46.310;11.214;2023-05-08T07:36:04;16.50;99.90
9987;DHT22;5033;46.310;11.214;2023-05-08T07:38:33;16.60;99.90
9987;DHT22;5033;46.310;11.214;2023-05-08T07:41:01;16.70;99.90
9987;DHT22;5033;46.310;11.214;2023-05-08T07:43:29;16.80;99.90
9987;DHT22;5033;46.310;11.214;2023-05-08T07:45:56;17.00;99.90
9987;DHT22;5033;46.310;11.214;2023-05-08T07:48:23;17.30;99.90
9987;DHT22;5033;46.310;11.214;2023-05-08T07:50:50;17.60;99.90
9987;DHT22;5033;46.310;11.214;2023-05-08T07:53:17;17.90;99.90
9987;DHT22;5033;46.310;11.214;2023-05-08T07:55:45;18.20;99.90
9987;DHT22;5033;46.310;11.214;2023-05-08T07:58:12;18.40;99.90
9987;DHT22;5033;46.310;11.214;2023-05-08T08:00:39;18.50;99.90
9987;DHT22;5033;46.310;11.214;2023-05-08T08:03:06;18.40;99.90
9987;DHT22;5033;46.310;11.214;2023-05-08T08:05:33;18.50;99.90
9987;DHT22;5033;46.310;11.214;2023-05-08T08:08:00;18.40;99.90
9987;DHT22;5033;46.310;11.214;2023-05-08T08:10:27;18.40;99.90
9987;DHT22;5033;46.310;11.214;2023-05-08T08:12:55;18.30;99.90
9987;DHT22;5033;46.310;11.214;2023-05-08T08:15:22;18.20;99.90
9987;DHT22;5033;46.310;11.214;2023-05-08T08:17:49;17.90;99.90
9987;DHT22;5033;46.310;11.214;2023-05-08T08:20:16;17.80;99.90
9987;DHT22;5033;46.310;11.214;2023-05-08T08:22:43;17.70;99.90
9987;DHT22;5033;46.310;11.214;2023-05-08T08:25:10;17.60;99.90
9987;DHT22;5033;46.310;11.214;2023-05-08T08:27:37;17.70;99.90
9987;DHT22;5033;46.310;11.214;2023-05-08T08:30:07;17.80;99.90
9987;DHT22;5033;46.310;11.214;2023-05-08T08:32:34;17.90;99.90
9987;DHT22;5033;46.310;11.214;2023-05-08T08:35:01;18.20;99.90
9987;DHT22;5033;46.310;11.214;2023-05-08T08:37:28;18.30;99.90
9987;DHT22;5033;46.310;11.214;2023-05-08T08:39:55;18.30;99.90
9987;DHT22;5033;46.310;11.214;2023-05-08T08:42:22;18.50;99.90
9987;DHT22;5033;46.310;11.214;2023-05-08T08:44:49;18.30;99.90
9987;DHT22;5033;46.310;11.214;2023-05-08T08:47:18;18.30;99.90
9987;DHT22;5033;46.310;11.214;2023-05-08T08:49:48;18.40;99.90
9987;DHT22;5033;46.310;11.214;2023-05-08T08:52:25;18.40;99.90
9987;DHT22;5033;46.310;11.214;2023-05-08T08:54:54;18.40;99.90
9987;DHT22;5033;46.310;11.214;2023-05-08T08:57:23;18.50;99.90
9987;DHT22;5033;46.310;11.214;2023-05-08T08:59:54;18.80;99.90
9987;DHT22;5033;46.310;11.214;2023-05-08T09:02:24;19.30;99.90
9987;DHT22;5033;46.310;11.214;2023-05-08T09:04:52;19.70;99.90
9987;DHT22;5033;46.310;11.214;2023-05-08T09:07:19;19.80;99.90
9987;DHT22;5033;46.310;11.214;2023-05-08T09:09:47;19.90;99.90
9987;DHT22;5033;46.310;11.214;2023-05-08T09:12:15;20.00;99.90
9987;DHT22;5033;46.310;11.214;2023-05-08T09:14:42;20.10;99.90
9987;DHT22;5033;46.310;11.214;2023-05-08T09:17:09;20.10;99.90
9987;DHT22;5033;46.310;11.214;2023-05-08T09:19:37;20.20;99.90
9987;DHT22;5033;46.310;11.214;2023-05-08T09:22:04;20.40;99.90
9987;DHT22;5033;46.310;11.214;2023-05-08T09:24:57;20.90;99.90
9987;DHT22;5033;46.310;11.214;2023-05-08T09:27:26;21.40;99.90
9987;DHT22;5033;46.310;11.214;2023-05-08T09:30:02;21.70;99.90
9987;DHT22;5033;46.310;11.214;2023-05-08T09:32:29;21.90;99.90
9987;DHT22;5033;46.310;11.214;2023-05-08T09:34:58;21.80;99.90
9987;DHT22;5033;46.310;11.214;2023-05-08T09:37:27;21.40;99.90
9987;DHT22;5033;46.310;11.214;2023-05-08T09:40:11;20.90;99.90
9987;DHT22;5033;46.310;11.214;2023-05-08T09:42:38;20.50;99.90
9987;DHT22;5033;46.310;11.214;2023-05-08T09:45:06;20.40;99.90
9987;DHT22;5033;46.310;11.214;2023-05-08T09:47:34;20.40;99.90
9987;DHT22;5033;46.310;11.214;2023-05-08T09:50:06;20.40;99.90
9987;DHT22;5033;46.310;11.214;2023-05-08T09:52:35;20.40;99.90
9987;DHT22;5033;46.310;11.214;2023-05-08T09:55:04;20.00;99.90
9987;DHT22;5033;46.310;11.214;2023-05-08T09:57:33;19.80;99.90
9987;DHT22;5033;46.310;11.214;2023-05-08T10:00:05;19.70;99.90
9987;DHT22;5033;46.310;11.214;2023-05-08T10:02:33;19.70;99.90
9987;DHT22;5033;46.310;11.214;2023-05-08T10:05:00;19.60;99.90
9987;DHT22;5033;46.310;11.214;2023-05-08T10:07:30;19.60;99.90
9987;DHT22;5033;46.310;11.214;2023-05-08T10:09:58;19.60;99.90
9987;DHT22;5033;46.310;11.214;2023-05-08T10:12:26;19.70;99.90
9987;DHT22;5033;46.310;11.214;2023-05-08T10:14:53;19.70;99.90
9987;DHT22;5033;46.310;11.214;2023-05-08T10:17:24;19.70;99.90
9987;DHT22;5033;46.310;11.214;2023-05-08T10:19:57;19.70;99.90
9987;DHT22;5033;46.310;11.214;2023-05-08T10:22:25;19.80;99.90
9987;DHT22;5033;46.310;11.214;2023-05-08T10:24:55;19.80;99.90
9987;DHT22;5033;46.310;11.214;2023-05-08T10:27:33;19.80;99.90
9987;DHT22;5033;46.310;11.214;2023-05-08T10:30:04;19.70;99.90
9987;DHT22;5033;46.310;11.214;2023-05-08T10:32:42;19.70;99.90
9987;DHT22;5033;46.310;11.214;2023-05-08T10:35:10;19.70;99.90
9987;DHT22;5033;46.310;11.214;2023-05-08T10:37:38;19.80;99.90
9987;DHT22;5033;46.310;11.214;2023-05-08T10:40:09;19.80;99.90
9987;DHT22;5033;46.310;11.214;2023-05-08T10:42:37;19.90;99.90
9987;DHT22;5033;46.310;11.214;2023-05-08T10:45:05;19.80;99.90
9987;DHT22;5033;46.310;11.214;2023-05-08T10:47:46;19.70;99.90
9987;DHT22;5033;46.310;11.214;2023-05-08T10:50:21;19.70;99.90
9987;DHT22;5033;46.310;11.214;2023-05-08T10:53:00;19.70;99.90
9987;DHT22;5033;46.310;11.214;2023-05-08T10:55:30;19.80;99.90
9987;DHT22;5033;46.310;11.214;2023-05-08T10:58:04;19.80;99.90
9987;DHT22;5033;46.310;11.214;2023-05-08T11:01:09;19.90;99.90
9987;DHT22;5033;46.310;11.214;2023-05-08T11:03:31;19.90;99.90
9987;DHT22;5033;46.310;11.214;2023-05-08T11:05:59;20.00;99.90
9987;DHT22;5033;46.310;11.214;2023-05-08T11:08:27;20.00;99.90
9987;DHT22;5033;46.310;11.214;2023-05-08T11:11:04;19.90;99.90
9987;DHT22;5033;46.310;11.214;2023-05-08T11:13:37;19.70;99.90
9987;DHT22;5033;46.310;11.214;2023-05-08T11:16:04;19.60;99.90
9987;DHT22;5033;46.310;11.214;2023-05-08T11:18:32;19.60;99.90
9987;DHT22;5033;46.310;11.214;2023-05-08T11:21:00;19.20;99.90
9987;DHT22;5033;46.310;11.214;2023-05-08T11:23:29;19.10;99.90
9987;DHT22;5033;46.310;11.214;2023-05-08T11:26:02;19.00;99.90
9987;DHT22;5033;46.310;11.214;2023-05-08T11:28:30;19.00;99.90
9987;DHT22;5033;46.310;11.214;2023-05-08T11:31:01;18.90;99.90
9987;DHT22;5033;46.310;11.214;2023-05-08T11:33:30;18.80;99.90
9987;DHT22;5033;46.310;11.214;2023-05-08T11:35:58;18.80;99.90
9987;DHT22;5033;46.310;11.214;2023-05-08T11:38:31;18.80;99.90
9987;DHT22;5033;46.310;11.214;2023-05-08T11:41:02;18.80;99.90
9987;DHT22;5033;46.310;11.214;2023-05-08T11:46:43;18.90;99.90
9987;DHT22;5033;46.310;11.214;2023-05-08T11:49:14;19.00;99.90
9987;DHT22;5033;46.310;11.214;2023-05-08T11:51:43;19.00;99.90
9987;DHT22;5033;46.310;11.214;2023-05-08T11:54:15;19.00;99.90
9987;DHT22;5033;46.310;11.214;2023-05-08T11:56:44;18.80;99.90
9987;DHT22;5033;46.310;11.214;2023-05-08T11:59:11;18.70;99.90
9987;DHT22;5033;46.310;11.214;2023-05-08T12:01:38;18.70;99.90
9987;DHT22;5033;46.310;11.214;2023-05-08T12:04:07;18.60;99.90
9987;DHT22;5033;46.310;11.214;2023-05-08T12:06:37;18.40;99.90
9987;DHT22;5033;46.310;11.214;2023-05-08T12:09:10;18.30;99.90
9987;DHT22;5033;46.310;11.214;2023-05-08T12:11:37;18.10;99.90
9987;DHT22;5033;46.310;11.214;2023-05-08T12:14:07;18.00;99.90
9987;DHT22;5033;46.310;11.214;2023-05-08T12:16:34;17.90;99.90
9987;DHT22;5033;46.310;11.214;2023-05-08T12:19:03;17.90;99.90
9987;DHT22;5033;46.310;11.214;2023-05-08T12:21:30;17.90;99.90
9987;DHT22;5033;46.310;11.214;2023-05-08T12:23:57;17.80;99.90
9987;DHT22;5033;46.310;11.214;2023-05-08T12:26:24;17.80;99.90
9987;DHT22;5033;46.310;11.214;2023-05-08T12:28:55;17.80;99.90
9987;DHT22;5033;46.310;11.214;2023-05-08T12:31:23;17.80;99.90
9987;DHT22;5033;46.310;11.214;2023-05-08T12:33:51;17.80;99.90
9987;DHT22;5033;46.310;11.214;2023-05-08T12:36:18;17.90;99.90
9987;DHT22;5033;46.310;11.214;2023-05-08T12:38:45;17.90;99.90
9987;DHT22;5033;46.310;11.214;2023-05-08T12:41:12;17.90;99.90
9987;DHT22;5033;46.310;11.214;2023-05-08T12:43:39;18.00;99.90
9987;DHT22;5033;46.310;11.214;2023-05-08T12:46:10;18.10;99.90
9987;DHT22;5033;46.310;11.214;2023-05-08T12:48:40;18.20;99.90
9987;DHT22;5033;46.310;11.214;2023-05-08T12:51:09;18.30;99.90
9987;DHT22;5033;46.310;11.214;2023-05-08T12:53:36;18.30;99.90
9987;DHT22;5033;46.310;11.214;2023-05-08T12:56:04;18.40;99.90
9987;DHT22;5033;46.310;11.214;2023-05-08T12:58:32;18.40;99.90
9987;DHT22;5033;46.310;11.214;2023-05-08T13:01:04;18.30;99.90
9987;DHT22;5033;46.310;11.214;2023-05-08T13:03:32;18.20;99.90
9987;DHT22;5033;46.310;11.214;2023-05-08T13:06:01;18.10;99.90
9987;DHT22;5033;46.310;11.214;2023-05-08T13:08:32;18.10;99.90
9987;DHT22;5033;46.310;11.214;2023-05-08T13:11:00;18.20;99.90
9987;DHT22;5033;46.310;11.214;2023-05-08T13:13:29;18.30;99.90
9987;DHT22;5033;46.310;11.214;2023-05-08T13:15:56;18.30;99.90
9987;DHT22;5033;46.310;11.214;2023-05-08T13:18:25;18.40;99.90
9987;DHT22;5033;46.310;11.214;2023-05-08T13:20:52;18.50;99.90
9987;DHT22;5033;46.310;11.214;2023-05-08T13:23:21;18.60;99.90
9987;DHT22;5033;46.310;11.214;2023-05-08T13:25:48;18.70;99.90
9987;DHT22;5033;46.310;11.214;2023-05-08T13:28:15;18.90;99.90
9987;DHT22;5033;46.310;11.214;2023-05-08T13:30:42;19.00;99.90
9987;DHT22;5033;46.310;11.214;2023-05-08T13:33:09;19.00;99.90
9987;DHT22;5033;46.310;11.214;2023-05-08T13:35:36;19.00;99.90
9987;DHT22;5033;46.310;11.214;2023-05-08T13:38:03;19.10;99.90
9987;DHT22;5033;46.310;11.214;2023-05-08T13:40:32;19.30;99.90
9987;DHT22;5033;46.310;11.214;2023-05-08T13:42:59;19.40;99.90
9987;DHT22;5033;46.310;11.214;2023-05-08T13:45:26;19.50;99.90
9987;DHT22;5033;46.310;11.214;2023-05-08T13:47:53;19.60;99.90
9987;DHT22;5033;46.310;11.214;2023-05-08T13:50:20;19.70;99.90
9987;DHT22;5033;46.310;11.214;2023-05-08T13:52:47;19.70;99.90
9987;DHT22;5033;46.310;11.214;2023-05-08T13:55:15;19.60;99.90
9987;DHT22;5033;46.310;11.214;2023-05-08T13:57:44;19.60;99.90
9987;DHT22;5033;46.310;11.214;2023-05-08T14:00:12;19.60;99.90
9987;DHT22;5033;46.310;11.214;2023-05-08T14:02:39;19.70;99.90
9987;DHT22;5033;46.310;11.214;2023-05-08T14:05:06;19.70;99.90
9987;DHT22;5033;46.310;11.214;2023-05-08T14:07:33;19.70;99.90
9987;DHT22;5033;46.310;11.214;2023-05-08T14:10:00;19.60;99.90
9987;DHT22;5033;46.310;11.214;2023-05-08T14:12:27;19.50;99.90
9987;DHT22;5033;46.310;11.214;2023-05-08T14:14:56;19.40;99.90
9987;DHT22;5033;46.310;11.214;2023-05-08T14:17:24;19.40;99.90
9987;DHT22;5033;46.310;11.214;2023-05-08T14:19:51;19.40;99.90
9987;DHT22;5033;46.310;11.214;2023-05-08T14:22:18;19.50;99.90
9987;DHT22;5033;46.310;11.214;2023-05-08T14:24:45;19.50;99.90
9987;DHT22;5033;46.310;11.214;2023-05-08T14:27:12;19.60;99.90
9987;DHT22;5033;46.310;11.214;2023-05-08T14:29:39;19.70;99.90
9987;DHT22;5033;46.310;11.214;2023-05-08T14:32:08;19.70;99.90
9987;DHT22;5033;46.310;11.214;2023-05-08T14:34:36;19.80;99.90
9987;DHT22;5033;46.310;11.214;2023-05-08T14:37:03;19.80;99.90
9987;DHT22;5033;46.310;11.214;2023-05-08T14:39:29;19.80;99.90
9987;DHT22;5033;46.310;11.214;2023-05-08T14:41:57;19.80;99.90
9987;DHT22;5033;46.310;11.214;2023-05-08T14:44:26;19.80;99.90
9987;DHT22;5033;46.310;11.214;2023-05-08T14:46:53;19.70;99.90
9987;DHT22;5033;46.310;11.214;2023-05-08T14:49:21;19.70;99.90
9987;DHT22;5033;46.310;11.214;2023-05-08T14:51:48;19.70;99.90
9987;DHT22;5033;46.310;11.214;2023-05-08T14:54:15;19.70;99.90
9987;DHT22;5033;46.310;11.214;2023-05-08T14:56:42;19.80;99.90
9987;DHT22;5033;46.310;11.214;2023-05-08T14:59:09;19.70;99.90
9987;DHT22;5033;46.310;11.214;2023-05-08T15:01:36;19.70;99.90
9987;DHT22;5033;46.310;11.214;2023-05-08T15:04:06;19.70;99.90
9987;DHT22;5033;46.310;11.214;2023-05-08T15:06:34;19.70;99.90
9987;DHT22;5033;46.310;11.214;2023-05-08T15:09:01;19.70;99.90
9987;DHT22;5033;46.310;11.214;2023-05-08T15:11:28;19.60;99.90
9987;DHT22;5033;46.310;11.214;2023-05-08T15:13:55;19.50;99.90
9987;DHT22;5033;46.310;11.214;2023-05-08T15:16:22;19.30;99.90
9987;DHT22;5033;46.310;11.214;2023-05-08T15:18:49;19.20;99.90
9987;DHT22;5033;46.310;11.214;2023-05-08T15:21:15;19.00;99.90
9987;DHT22;5033;46.310;11.214;2023-05-08T15:23:44;18.90;99.90
9987;DHT22;5033;46.310;11.214;2023-05-08T15:26:11;18.90;99.90
9987;DHT22;5033;46.310;11.214;2023-05-08T15:28:38;18.90;99.90
9987;DHT22;5033;46.310;11.214;2023-05-08T15:31:05;18.90;99.90
9987;DHT22;5033;46.310;11.214;2023-05-08T15:33:32;18.90;99.90
9987;DHT22;5033;46.310;11.214;2023-05-08T15:35:59;18.80;99.90
9987;DHT22;5033;46.310;11.214;2023-05-08T15:38:26;18.80;99.90
9987;DHT22;5033;46.310;11.214;2023-05-08T15:40:54;18.80;99.90
9987;DHT22;5033;46.310;11.214;2023-05-08T15:43:21;18.60;99.90
9987;DHT22;5033;46.310;11.214;2023-05-08T15:45:49;18.50;99.90
9987;DHT22;5033;46.310;11.214;2023-05-08T15:48:16;18.40;99.90
9987;DHT22;5033;46.310;11.214;2023-05-08T15:50:43;18.40;99.90
9987;DHT22;5033;46.310;11.214;2023-05-08T15:53:10;18.40;99.90
9987;DHT22;5033;46.310;11.214;2023-05-08T15:55:37;18.40;99.90
9987;DHT22;5033;46.310;11.214;2023-05-08T15:58:05;18.40;99.90
9987;DHT22;5033;46.310;11.214;2023-05-08T16:00:32;18.50;99.90